METAR de aeropuertos de Murcia y cercanos

 

LEAL - Alicante
Actualización: 24/02/2017 02:00
Partly Cloudy
Partly Cloudy
 Viento del NE
Viento: NE 13 km/h
Temperatura: 15°C
Rocío: 12°C
Humedad: 82%
Barómetro: 1011 hPa
Nubosidad: Partly Cloudy
Visibilidad: 10 km
Cloud details: Partly Cloudy 396 m
2017/02/24 01:00 LEAL 240100Z 05007KT 9999 SCT013 15/12 Q1011 NOSIG
LEAB - Albacete
Actualización: 24/02/2017 02:00
Cubierto
Cubierto
 Viento del NNO
Viento: NNO 9 km/h
Temperatura: 8°C
Wind Chill: 6°C
Rocío: 7°C
Humedad: 93%
Barómetro: 1013 hPa
Nubosidad: Cubierto
Visibilidad: 10 km
Cloud details: Few Clouds 1097 m
Cubierto 1250 m
2017/02/24 01:00 LEAB 240100Z 34005KT 9999 FEW036 OVC041 08/07 Q1013 TEMPO SHRA FEW035TCU
LEAM - Almería
Actualización: 24/02/2017 02:00
Mostly Cloudy
Mostly Cloudy
 Viento del N
Viento: N 6 km/h
Temperatura: 13°C
Rocío: 11°C
Humedad: 88%
Barómetro: 1011 hPa
Nubosidad: Mostly Cloudy
Visibilidad: 10 km
Cloud details: Partly Cloudy 1524 m
Mostly Cloudy 1829 m
2017/02/24 01:00 LEAM 240100Z AUTO 01003KT 9999 SCT050 BKN060 13/11 Q1011
 
LERI - Murcia/Alcantarilla
Actualización: 23/02/2017 19:00
NO Actualizado
Few Clouds
Few Clouds
 Viento del ENE
Viento: ENE 11 km/h
Temperatura: 16°C
Rocío: 10°C
Humedad: 68%
Barómetro: 1011 hPa
Nubosidad: Few Clouds
Visibilidad: 9 km
Cloud details: Few Clouds 1524 m
2017/02/23 18:00 LERI 231800Z 07006KT 9000 FEW050 16/10 Q1011 NOSIG
LELC - Murcia/San Javier
Actualización: 23/02/2017 22:00
NO Actualizado
Few Clouds
Few Clouds
 Viento del N
Viento: N 11 km/h
Temperatura: 15°C
Rocío: 13°C
Humedad: 88%
Barómetro: 1011 hPa
Nubosidad: Few Clouds
Visibilidad: 10 km
Cloud details: Few Clouds 1158 m
2017/02/23 21:00 LELC 232100Z 36006KT 9999 FEW038 15/13 Q1011 NOSIG

La estación de MeteoMurcia.com, publica sus datos en los siguientes proyectos:

Meteoclimatic www.awekas.at

W3Counter
Web Analytics